Time;durP1;ratioP1;P1;durP2;ratioP2;P2;SDS_P1;SDS_P2;PMS_P1;PMS_P2;Temp;Humidity;BMP_temperature;BMP_pressure;BME280_temperature;BME280_humidity;BME280_pressure;Samples;Min_cycle;Max_cycle;Signal;HPM_P1;HPM_P2
2021/05/16 00:01:03;;;;;;;19.77;11.90;;;10.80;99.90;;;;;;4326701;32;20247;-65
2021/05/16 00:03:29;;;;;;;21.67;12.43;;;10.90;99.90;;;;;;4342763;33;20227;-63
2021/05/16 00:05:57;;;;;;;20.80;13.97;;;10.90;99.90;;;;;;4342135;32;20277;-64
2021/05/16 00:08:24;;;;;;;24.17;12.83;;;10.90;99.90;;;;;;4339611;33;20165;-62
2021/05/16 00:10:50;;;;;;;19.50;13.73;;;10.90;99.90;;;;;;4331005;33;20636;-62
2021/05/16 00:13:20;;;;;;;21.83;12.40;;;11.00;99.90;;;;;;4322313;33;20657;-64
2021/05/16 00:15:46;;;;;;;24.47;14.27;;;11.00;99.90;;;;;;4336021;33;20230;-64
2021/05/16 00:18:14;;;;;;;25.67;15.37;;;11.10;99.90;;;;;;4342756;33;20221;-64
2021/05/16 00:20:43;;;;;;;23.70;16.50;;;11.10;99.90;;;;;;4339010;33;20177;-61
2021/05/16 00:23:10;;;;;;;24.93;15.13;;;11.10;99.90;;;;;;4345147;33;20165;-62
2021/05/16 00:25:36;;;;;;;25.93;16.87;;;11.00;99.90;;;;;;4342344;33;20241;-64
2021/05/16 00:28:04;;;;;;;22.77;16.20;;;11.00;99.90;;;;;;4336306;33;20163;-64
2021/05/16 00:30:30;;;;;;;27.63;16.97;;;11.00;99.90;;;;;;4336124;33;20196;-64
2021/05/16 00:33:00;;;;;;;29.17;17.63;;;11.10;99.90;;;;;;4330702;33;20161;-63
2021/05/16 00:35:41;;;;;;;25.63;17.37;;;11.00;99.90;;;;;;4343927;32;20280;-65
2021/05/16 00:38:10;;;;;;;37.67;18.87;;;11.10;99.90;;;;;;4343119;32;20234;-64
2021/05/16 00:40:36;;;;;;;26.90;17.97;;;11.10;99.90;;;;;;4332121;33;20643;-64
2021/05/16 00:43:04;;;;;;;31.63;18.60;;;11.10;99.90;;;;;;4335321;33;20188;-62
2021/05/16 00:45:30;;;;;;;29.90;17.63;;;11.20;99.90;;;;;;4337216;33;20597;-62
2021/05/16 00:47:59;;;;;;;29.43;17.77;;;11.20;99.90;;;;;;4341123;33;20196;-64
2021/05/16 00:50:27;;;;;;;30.90;16.57;;;11.20;99.90;;;;;;4330471;33;20217;-64
2021/05/16 00:52:54;;;;;;;33.47;18.97;;;11.20;99.90;;;;;;4340330;33;20193;-62
2021/05/16 00:55:21;;;;;;;38.43;17.97;;;11.30;99.90;;;;;;4347152;32;20172;-63
2021/05/16 00:58:02;;;;;;;28.03;17.10;;;11.10;99.90;;;;;;4349592;33;20175;-62
2021/05/16 01:00:34;;;;;;;33.03;18.50;;;11.20;99.90;;;;;;4341961;33;20208;-66
2021/05/16 01:03:03;;;;;;;32.13;19.00;;;11.30;99.90;;;;;;4339985;33;20176;-63
2021/05/16 01:05:31;;;;;;;29.77;17.30;;;11.30;99.90;;;;;;4341956;33;20235;-63
2021/05/16 01:07:58;;;;;;;31.57;16.40;;;11.30;99.90;;;;;;4338119;33;20169;-61
2021/05/16 01:10:26;;;;;;;31.27;17.83;;;11.30;99.90;;;;;;4333339;33;20238;-64
2021/05/16 01:12:55;;;;;;;29.57;16.50;;;11.30;99.90;;;;;;4336015;33;20180;-64
2021/05/16 01:15:23;;;;;;;25.27;16.73;;;11.30;99.90;;;;;;4339514;33;20593;-64
2021/05/16 01:17:51;;;;;;;38.00;18.37;;;11.30;99.90;;;;;;4339802;33;20221;-66
2021/05/16 01:20:20;;;;;;;27.90;16.20;;;11.40;99.90;;;;;;4335609;33;20239;-64
2021/05/16 01:22:53;;;;;;;27.70;16.60;;;11.40;99.90;;;;;;4340223;33;20188;-63
2021/05/16 01:25:21;;;;;;;25.17;16.13;;;11.40;99.90;;;;;;4335340;33;20165;-63
2021/05/16 01:27:48;;;;;;;32.67;17.43;;;11.40;99.90;;;;;;4334862;33;20164;-64
2021/05/16 01:30:23;;;;;;;31.77;17.03;;;11.40;99.90;;;;;;4337351;33;20224;-63
2021/05/16 01:32:51;;;;;;;40.43;17.73;;;11.40;99.90;;;;;;4338694;33;20187;-64
2021/05/16 01:35:18;;;;;;;47.03;18.47;;;11.50;99.90;;;;;;4336536;33;20160;-65
2021/05/16 01:37:47;;;;;;;36.30;15.73;;;11.50;99.90;;;;;;4336554;33;20166;-62
2021/05/16 01:40:15;;;;;;;32.67;16.87;;;11.40;99.90;;;;;;4337931;33;20161;-64
2021/05/16 01:42:47;;;;;;;42.63;17.60;;;11.40;99.90;;;;;;4337320;33;20672;-63
2021/05/16 01:45:15;;;;;;;28.47;13.93;;;11.40;99.90;;;;;;4338729;33;20161;-64
2021/05/16 01:47:42;;;;;;;29.47;13.67;;;11.20;99.90;;;;;;4340040;33;20177;-62
2021/05/16 01:50:11;;;;;;;23.77;13.03;;;11.20;99.90;;;;;;4339447;33;20208;-62
2021/05/16 01:52:40;;;;;;;31.97;13.13;;;11.10;99.90;;;;;;4340772;33;20187;-62
2021/05/16 01:55:07;;;;;;;38.37;17.37;;;11.10;99.90;;;;;;4336784;33;20251;-64
2021/05/16 01:57:34;;;;;;;41.73;19.00;;;11.10;99.90;;;;;;4339474;33;20169;-62
2021/05/16 02:00:01;;;;;;;41.33;20.13;;;11.10;99.90;;;;;;4335133;33;20184;-63
2021/05/16 02:02:28;;;;;;;51.03;21.50;;;11.00;99.90;;;;;;4333959;33;20236;-61
2021/05/16 02:04:54;;;;;;;74.23;25.90;;;11.00;99.90;;;;;;4334171;33;20184;-63
2021/05/16 02:07:21;;;;;;;59.10;23.03;;;10.90;99.90;;;;;;4335662;33;20198;-63
2021/05/16 02:09:48;;;;;;;54.07;22.73;;;10.80;99.90;;;;;;4339759;33;20275;-61
2021/05/16 02:12:18;;;;;;;54.37;22.97;;;10.80;99.90;;;;;;4336854;33;20336;-62
2021/05/16 02:14:54;;;;;;;58.33;24.33;;;10.80;99.90;;;;;;4340189;33;20847;-61
2021/05/16 02:17:20;;;;;;;60.33;24.13;;;10.80;99.90;;;;;;4338015;33;20160;-62
2021/05/16 02:19:48;;;;;;;66.40;22.93;;;10.80;99.90;;;;;;4331210;33;20190;-62
2021/05/16 02:22:15;;;;;;;54.20;23.20;;;10.70;99.90;;;;;;4338566;33;20169;-61
2021/05/16 02:24:42;;;;;;;70.10;26.10;;;10.80;99.90;;;;;;4336261;33;20193;-62
2021/05/16 02:27:10;;;;;;;68.97;24.27;;;10.80;99.90;;;;;;4338585;33;20161;-63
2021/05/16 02:29:37;;;;;;;73.30;25.83;;;10.80;99.90;;;;;;4338507;33;20180;-63
2021/05/16 02:32:07;;;;;;;57.80;22.87;;;10.80;99.90;;;;;;4345613;33;20217;-61
2021/05/16 02:34:38;;;;;;;60.37;21.90;;;10.80;99.90;;;;;;4336129;33;20201;-63
2021/05/16 02:37:04;;;;;;;70.60;24.73;;;10.80;99.90;;;;;;4341045;33;20160;-63
2021/05/16 02:39:34;;;;;;;58.27;22.93;;;10.70;99.90;;;;;;4334460;33;20171;-62
2021/05/16 02:42:00;;;;;;;66.10;24.43;;;10.60;99.90;;;;;;4335260;33;20169;-61
2021/05/16 02:44:28;;;;;;;73.17;24.53;;;10.70;99.90;;;;;;4339959;33;20227;-61
2021/05/16 02:46:54;;;;;;;65.77;23.37;;;10.70;99.90;;;;;;4337437;33;20168;-62
2021/05/16 02:49:22;;;;;;;55.37;21.47;;;10.70;99.90;;;;;;4340281;33;20154;-64
2021/05/16 02:51:48;;;;;;;55.63;22.30;;;10.70;99.90;;;;;;4339187;33;20177;-62
2021/05/16 02:54:14;;;;;;;48.63;20.60;;;10.70;99.90;;;;;;4336774;33;20180;-64
2021/05/16 02:56:42;;;;;;;52.20;19.97;;;10.70;99.90;;;;;;4336071;33;20249;-63
2021/05/16 02:59:10;;;;;;;57.30;20.90;;;10.70;99.90;;;;;;4340557;33;20584;-61
2021/05/16 03:01:37;;;;;;;56.27;21.43;;;10.70;99.90;;;;;;4343015;33;20180;-62
2021/05/16 03:04:03;;;;;;;54.33;20.80;;;10.70;99.90;;;;;;4340194;33;20180;-62
2021/05/16 03:06:33;;;;;;;50.50;20.20;;;10.70;99.90;;;;;;4341690;33;20229;-62
2021/05/16 03:09:00;;;;;;;50.50;21.27;;;10.70;99.90;;;;;;4338774;33;20265;-61
2021/05/16 03:11:27;;;;;;;54.00;22.13;;;10.70;99.90;;;;;;4338846;33;20559;-61
2021/05/16 03:13:53;;;;;;;59.17;21.10;;;10.80;99.90;;;;;;4339927;33;20216;-62
2021/05/16 03:16:19;;;;;;;65.20;21.33;;;10.70;99.90;;;;;;4338832;33;20267;-61
2021/05/16 03:18:48;;;;;;;57.37;21.40;;;10.70;99.90;;;;;;4333054;33;20231;-62
2021/05/16 03:21:14;;;;;;;57.73;19.90;;;10.70;99.90;;;;;;4343444;33;20182;-63
2021/05/16 03:23:42;;;;;;;55.70;20.37;;;10.70;99.90;;;;;;4336193;33;20175;-62
2021/05/16 03:26:08;;;;;;;50.33;18.73;;;10.70;99.90;;;;;;4336396;33;20189;-64
2021/05/16 03:28:34;;;;;;;52.13;19.10;;;10.80;99.90;;;;;;4332125;33;20161;-64
2021/05/16 03:31:01;;;;;;;52.73;18.57;;;10.80;99.90;;;;;;4340392;32;20522;-64
2021/05/16 03:33:27;;;;;;;45.57;20.37;;;10.80;99.90;;;;;;4340506;33;20183;-62
2021/05/16 03:35:54;;;;;;;46.27;20.03;;;10.90;99.90;;;;;;4341939;33;20227;-61
2021/05/16 03:38:20;;;;;;;48.83;18.77;;;10.90;99.90;;;;;;4340779;33;20239;-62
2021/05/16 03:40:48;;;;;;;49.93;18.13;;;10.90;99.90;;;;;;4339672;33;20256;-61
2021/05/16 03:43:14;;;;;;;36.90;17.57;;;10.90;99.90;;;;;;4342310;33;20223;-62
2021/05/16 03:45:41;;;;;;;43.80;16.87;;;10.90;99.90;;;;;;4342156;33;20175;-62
2021/05/16 03:48:07;;;;;;;54.53;18.93;;;10.90;99.90;;;;;;4335158;33;20213;-63
2021/05/16 03:50:35;;;;;;;47.73;18.13;;;10.90;99.90;;;;;;4333590;33;20267;-61
2021/05/16 03:53:03;;;;;;;41.93;17.63;;;10.90;99.90;;;;;;4338637;33;20565;-61
2021/05/16 03:55:29;;;;;;;40.67;19.47;;;10.90;99.90;;;;;;4338298;33;20520;-63
2021/05/16 03:58:06;;;;;;;41.73;18.17;;;10.90;99.90;;;;;;4337018;33;20230;-63
2021/05/16 04:00:36;;;;;;;44.80;17.83;;;10.90;99.90;;;;;;4343255;33;20258;-62
2021/05/16 04:03:02;;;;;;;42.87;17.40;;;10.80;99.90;;;;;;4337945;33;20185;-63
2021/05/16 04:05:31;;;;;;;44.63;18.70;;;10.90;99.90;;;;;;4344506;33;20231;-65
2021/05/16 04:07:59;;;;;;;46.90;17.30;;;10.90;99.90;;;;;;4334570;33;20233;-63
2021/05/16 04:10:28;;;;;;;43.27;17.87;;;10.90;99.90;;;;;;4336737;33;20709;-62
2021/05/16 04:12:57;;;;;;;50.57;18.07;;;10.90;99.90;;;;;;4334182;33;20243;-62
2021/05/16 04:15:24;;;;;;;38.17;17.43;;;10.90;99.90;;;;;;4335024;33;20216;-61
2021/05/16 04:17:50;;;;;;;56.07;19.80;;;11.00;99.90;;;;;;4343394;33;20184;-64
2021/05/16 04:20:19;;;;;;;44.07;17.40;;;11.00;99.90;;;;;;4340719;33;20553;-61
2021/05/16 04:22:48;;;;;;;50.60;18.77;;;11.00;99.90;;;;;;4340016;33;20310;-61
2021/05/16 04:25:14;;;;;;;44.70;18.90;;;11.00;99.90;;;;;;4342861;33;20165;-64
2021/05/16 04:27:42;;;;;;;40.83;16.47;;;11.00;99.90;;;;;;4331248;33;20217;-63
2021/05/16 04:30:09;;;;;;;51.73;18.07;;;11.10;99.90;;;;;;4335305;33;20169;-62
2021/05/16 04:32:36;;;;;;;49.87;17.33;;;11.10;99.90;;;;;;4332672;33;20557;-61
2021/05/16 04:35:04;;;;;;;44.90;16.30;;;11.00;99.90;;;;;;4337021;33;20208;-62
2021/05/16 04:37:30;;;;;;;43.80;16.63;;;11.00;99.90;;;;;;4335878;33;20560;-62
2021/05/16 04:39:56;;;;;;;41.13;16.20;;;11.00;99.90;;;;;;4340353;33;20271;-62
2021/05/16 04:42:23;;;;;;;47.80;17.80;;;11.00;99.90;;;;;;4336248;33;20192;-63
2021/05/16 04:44:52;;;;;;;40.50;15.33;;;10.90;99.90;;;;;;4335570;33;20220;-62
2021/05/16 04:47:18;;;;;;;43.97;17.20;;;11.00;99.90;;;;;;4342911;33;20156;-63
2021/05/16 04:49:45;;;;;;;48.50;16.57;;;10.90;99.90;;;;;;4335864;33;20593;-62
2021/05/16 04:52:13;;;;;;;38.50;15.67;;;10.90;99.90;;;;;;4334383;33;20503;-62
2021/05/16 04:54:39;;;;;;;43.80;16.90;;;10.90;99.90;;;;;;4330643;33;20195;-63
2021/05/16 04:57:06;;;;;;;50.50;18.80;;;10.90;99.90;;;;;;4336699;33;20637;-60
2021/05/16 04:59:35;;;;;;;52.40;18.90;;;10.90;99.90;;;;;;4341492;33;20487;-64
2021/05/16 05:02:06;;;;;;;49.70;18.80;;;10.90;99.90;;;;;;4339888;33;20488;-62
2021/05/16 05:04:35;;;;;;;36.30;16.73;;;10.90;99.90;;;;;;4344772;33;20161;-63
2021/05/16 05:07:04;;;;;;;44.00;16.70;;;10.90;99.90;;;;;;4338965;33;20190;-60
2021/05/16 05:09:32;;;;;;;58.43;19.33;;;11.00;99.90;;;;;;4339449;33;20219;-63
2021/05/16 05:11:58;;;;;;;39.20;17.00;;;10.90;99.90;;;;;;4339186;33;20168;-61
2021/05/16 05:14:28;;;;;;;39.77;16.07;;;10.90;99.90;;;;;;4340787;33;20190;-63
2021/05/16 05:17:05;;;;;;;33.80;14.83;;;10.90;99.90;;;;;;4344817;33;20168;-60
2021/05/16 05:19:34;;;;;;;39.27;14.63;;;10.80;99.90;;;;;;4339333;33;20157;-63
2021/05/16 05:22:00;;;;;;;43.00;15.63;;;10.90;99.90;;;;;;4338345;33;20211;-63
2021/05/16 05:24:30;;;;;;;25.20;12.67;;;10.80;99.90;;;;;;4345853;33;20618;-63
2021/05/16 05:26:58;;;;;;;28.00;11.63;;;10.90;99.90;;;;;;4339908;33;20204;-61
2021/05/16 05:29:24;;;;;;;36.50;15.10;;;10.90;99.90;;;;;;4338528;33;20176;-62
2021/05/16 05:31:52;;;;;;;29.67;13.57;;;10.90;99.90;;;;;;4339240;32;20165;-60
2021/05/16 05:34:21;;;;;;;39.47;14.23;;;10.90;99.90;;;;;;4335520;33;20169;-62
2021/05/16 05:36:51;;;;;;;38.50;15.27;;;10.90;99.90;;;;;;4340105;33;20183;-62
2021/05/16 05:39:17;;;;;;;47.47;15.80;;;10.90;99.90;;;;;;4336568;33;20197;-61
2021/05/16 05:41:46;;;;;;;42.93;15.40;;;10.90;99.90;;;;;;4337161;33;20163;-64
2021/05/16 05:44:16;;;;;;;46.40;17.00;;;11.00;99.90;;;;;;4334527;33;20194;-62
2021/05/16 05:46:43;;;;;;;51.40;16.00;;;11.10;99.90;;;;;;4338711;33;20172;-64
2021/05/16 05:49:09;;;;;;;50.77;16.43;;;11.30;99.90;;;;;;4338238;33;20539;-62
2021/05/16 05:51:35;;;;;;;59.07;17.27;;;11.20;99.90;;;;;;4337356;33;20168;-63
2021/05/16 05:54:03;;;;;;;55.40;17.03;;;11.40;99.90;;;;;;4335560;33;20521;-64
2021/05/16 05:56:30;;;;;;;54.43;16.33;;;11.50;99.90;;;;;;4335598;33;20161;-61
2021/05/16 05:58:57;;;;;;;42.70;17.03;;;11.50;99.90;;;;;;4338157;33;20337;-61
2021/05/16 06:01:26;;;;;;;49.10;18.33;;;11.50;99.90;;;;;;4338539;33;20157;-64
2021/05/16 06:03:53;;;;;;;46.63;15.77;;;11.40;99.90;;;;;;4340124;33;20211;-63
2021/05/16 06:06:21;;;;;;;39.20;16.40;;;11.40;99.90;;;;;;4337001;33;20251;-63
2021/05/16 06:08:47;;;;;;;46.10;16.20;;;11.50;99.90;;;;;;4334807;33;20157;-62
2021/05/16 06:11:14;;;;;;;41.03;14.70;;;11.60;99.90;;;;;;4338577;32;20165;-62
2021/05/16 06:13:40;;;;;;;47.97;15.73;;;11.70;99.90;;;;;;4335148;33;20304;-62
2021/05/16 06:16:07;;;;;;;50.77;16.37;;;12.00;99.90;;;;;;4337098;33;20252;-63
2021/05/16 06:18:35;;;;;;;45.73;15.50;;;12.20;99.90;;;;;;4338424;33;20185;-64
2021/05/16 06:21:03;;;;;;;44.70;15.77;;;12.50;99.90;;;;;;4334800;33;20234;-64
2021/05/16 06:23:35;;;;;;;39.97;15.73;;;12.50;99.90;;;;;;4337496;33;20193;-64
2021/05/16 06:26:04;;;;;;;35.20;13.50;;;12.70;99.90;;;;;;4334536;33;20153;-61
2021/05/16 06:28:33;;;;;;;38.33;13.40;;;13.20;99.90;;;;;;4334470;33;20546;-63
2021/05/16 06:31:00;;;;;;;39.37;14.33;;;13.70;99.90;;;;;;4333890;33;20177;-61
2021/05/16 06:33:29;;;;;;;36.40;13.17;;;13.50;99.90;;;;;;4333888;33;20209;-64
2021/05/16 06:35:56;;;;;;;33.90;13.53;;;13.30;99.90;;;;;;4333821;33;20162;-62
2021/05/16 06:38:27;;;;;;;45.43;13.90;;;13.00;99.90;;;;;;4329634;33;20181;-62
2021/05/16 06:40:58;;;;;;;40.73;13.57;;;13.20;99.90;;;;;;4332777;33;20247;-64
2021/05/16 06:43:24;;;;;;;40.40;14.23;;;13.00;99.90;;;;;;4330498;33;20173;-65
2021/05/16 06:45:51;;;;;;;41.73;13.37;;;12.80;99.90;;;;;;4338267;33;20177;-64
2021/05/16 06:48:17;;;;;;;36.00;13.50;;;12.60;99.90;;;;;;4333353;33;20228;-64
2021/05/16 06:50:47;;;;;;;44.57;14.97;;;12.60;99.90;;;;;;4333432;33;20165;-64
2021/05/16 06:53:13;;;;;;;36.20;13.07;;;12.60;99.90;;;;;;4333290;33;20177;-64
2021/05/16 06:55:40;;;;;;;35.77;13.20;;;12.50;99.90;;;;;;4330946;33;20169;-63
2021/05/16 06:58:07;;;;;;;38.13;13.20;;;12.50;99.90;;;;;;4335070;33;20240;-63
2021/05/16 07:00:33;;;;;;;44.90;14.73;;;12.70;99.90;;;;;;4332324;33;20161;-61
2021/05/16 07:02:59;;;;;;;33.57;12.83;;;12.80;99.90;;;;;;4333631;33;20233;-63
2021/05/16 07:05:26;;;;;;;37.27;13.10;;;12.90;99.90;;;;;;4335669;33;20187;-62
2021/05/16 07:07:53;;;;;;;41.10;13.47;;;13.20;99.90;;;;;;4333238;33;20161;-60
2021/05/16 07:10:20;;;;;;;35.47;12.63;;;13.30;99.90;;;;;;4334717;33;20161;-64
2021/05/16 07:12:50;;;;;;;34.30;11.03;;;14.00;99.90;;;;;;4331381;33;20170;-63
2021/05/16 07:15:16;;;;;;;27.43;10.73;;;15.70;99.90;;;;;;4328991;33;20522;-63
2021/05/16 07:17:43;;;;;;;29.27;9.77;;;17.30;99.90;;;;;;4333367;33;20200;-62
2021/05/16 07:20:11;;;;;;;28.97;9.83;;;18.30;96.20;;;;;;4342361;33;20156;-65
2021/05/16 07:22:38;;;;;;;30.40;9.60;;;17.70;95.40;;;;;;4333031;33;20212;-63
2021/05/16 07:25:14;;;;;;;24.37;9.57;;;16.30;97.50;;;;;;4334221;33;20181;-64
2021/05/16 07:27:40;;;;;;;30.50;9.87;;;15.40;99.70;;;;;;4335609;33;20164;-63
2021/05/16 07:30:11;;;;;;;31.80;10.23;;;14.60;99.90;;;;;;4341896;33;20263;-64
2021/05/16 07:32:38;;;;;;;23.33;8.47;;;14.60;99.90;;;;;;4332537;33;20219;-64
2021/05/16 07:35:10;;;;;;;24.13;8.33;;;15.70;99.90;;;;;;4344621;33;20311;-64
2021/05/16 07:37:36;;;;;;;19.07;7.80;;;17.00;96.40;;;;;;4343215;33;20149;-63
2021/05/16 07:40:05;;;;;;;21.50;8.10;;;18.40;95.10;;;;;;4342534;33;20283;-62
2021/05/16 07:42:32;;;;;;;27.70;8.03;;;19.00;92.00;;;;;;4338571;33;20579;-65
2021/05/16 07:44:59;;;;;;;23.30;7.80;;;17.40;92.80;;;;;;4341252;33;20157;-63
2021/05/16 07:47:30;;;;;;;27.13;8.43;;;16.90;95.70;;;;;;4342100;32;20225;-63
2021/05/16 07:49:56;;;;;;;23.40;7.77;;;17.30;96.50;;;;;;4342216;33;20195;-64
2021/05/16 07:52:22;;;;;;;15.30;7.17;;;18.70;92.40;;;;;;4339884;33;20660;-62
2021/05/16 07:54:49;;;;;;;27.73;7.97;;;18.70;92.60;;;;;;4338081;33;20192;-64
2021/05/16 07:57:15;;;;;;;28.47;8.17;;;19.80;89.00;;;;;;4338353;33;20172;-62
2021/05/16 07:59:43;;;;;;;22.50;7.40;;;18.50;90.40;;;;;;4344484;33;20177;-64
2021/05/16 08:02:09;;;;;;;26.90;7.90;;;16.60;93.80;;;;;;4340651;33;20157;-63
2021/05/16 08:04:36;;;;;;;25.17;8.97;;;15.70;96.30;;;;;;4342746;33;20177;-64
2021/05/16 08:07:02;;;;;;;28.80;7.57;;;14.80;97.90;;;;;;4343258;33;20272;-62
2021/05/16 08:09:29;;;;;;;19.83;7.37;;;15.60;98.10;;;;;;4341980;33;20485;-64
2021/05/16 08:11:55;;;;;;;28.33;7.97;;;17.40;93.70;;;;;;4337332;33;20161;-66
2021/05/16 08:14:21;;;;;;;25.00;8.20;;;17.30;92.70;;;;;;4339638;33;20177;-64
2021/05/16 08:16:49;;;;;;;31.37;10.37;;;16.10;94.60;;;;;;4332835;33;20702;-65
2021/05/16 08:19:15;;;;;;;28.17;8.40;;;15.20;97.10;;;;;;4338565;33;20173;-66
2021/05/16 08:21:41;;;;;;;31.27;9.53;;;14.80;98.40;;;;;;4337567;33;20189;-61
2021/05/16 08:24:09;;;;;;;31.73;10.90;;;14.40;99.40;;;;;;4337929;33;20180;-64
2021/05/16 08:26:38;;;;;;;32.50;10.73;;;14.30;99.90;;;;;;4343092;33;20529;-66
2021/05/16 08:29:05;;;;;;;29.17;10.53;;;14.80;99.90;;;;;;4346185;33;20164;-65
2021/05/16 08:31:35;;;;;;;25.17;10.77;;;14.50;99.90;;;;;;4343471;33;20179;-63
2021/05/16 08:34:03;;;;;;;32.03;10.20;;;13.80;99.90;;;;;;4337173;33;20638;-65
2021/05/16 08:36:32;;;;;;;31.60;11.10;;;13.30;99.90;;;;;;4342581;33;20157;-65
2021/05/16 08:38:59;;;;;;;27.47;10.20;;;13.20;99.90;;;;;;4335970;33;20236;-64
2021/05/16 08:41:26;;;;;;;33.77;11.43;;;13.00;99.90;;;;;;4338498;33;20224;-62
2021/05/16 08:43:52;;;;;;;33.87;11.17;;;12.80;99.90;;;;;;4345633;33;20164;-65
2021/05/16 08:46:19;;;;;;;35.93;11.93;;;12.90;99.90;;;;;;4342638;33;20240;-63
2021/05/16 08:48:45;;;;;;;26.73;9.33;;;14.20;99.90;;;;;;4339143;33;20220;-64
2021/05/16 08:51:15;;;;;;;21.10;9.77;;;18.80;99.10;;;;;;4342380;33;20221;-65
2021/05/16 08:53:42;;;;;;;22.87;8.33;;;20.70;90.10;;;;;;4339711;33;20207;-63
2021/05/16 08:56:10;;;;;;;25.67;8.40;;;23.90;80.60;;;;;;4342429;33;20161;-62
2021/05/16 08:58:39;;;;;;;25.97;8.50;;;23.40;75.00;;;;;;4341159;33;20533;-64
2021/05/16 09:01:19;;;;;;;24.90;8.20;;;21.00;77.30;;;;;;4343655;33;20183;-64
2021/05/16 09:03:48;;;;;;;18.93;8.03;;;19.00;87.80;;;;;;4347806;33;20200;-61
2021/05/16 09:06:17;;;;;;;19.00;7.50;;;18.70;91.90;;;;;;4346904;33;20637;-65
2021/05/16 09:08:51;;;;;;;15.50;6.30;;;19.90;90.70;;;;;;4341655;33;20160;-64
2021/05/16 09:11:22;;;;;;;16.13;4.97;;;25.50;73.60;;;;;;4347054;33;20188;-65
2021/05/16 09:13:53;;;;;;;15.37;5.47;;;29.00;54.90;;;;;;4342933;33;20157;-64
2021/05/16 09:16:22;;;;;;;18.00;5.90;;;26.10;57.80;;;;;;4341863;33;20203;-62
2021/05/16 09:18:50;;;;;;;16.23;5.60;;;24.50;67.50;;;;;;4341723;32;20677;-62
2021/05/16 09:21:33;;;;;;;17.33;6.60;;;25.50;60.00;;;;;;4334159;33;20216;-62
2021/05/16 09:24:15;;;;;;;21.03;6.30;;;22.20;67.90;;;;;;4331634;33;20221;-64
2021/05/16 09:26:58;;;;;;;21.17;6.40;;;19.70;78.50;;;;;;4338091;33;20149;-64
2021/05/16 09:32:10;;;;;;;16.27;5.30;;;17.40;89.70;;;;;;4339352;33;20185;-64
2021/05/16 09:34:39;;;;;;;19.67;5.63;;;16.10;93.00;;;;;;4336091;33;20727;-63
2021/05/16 09:37:07;;;;;;;18.30;5.27;;;15.00;95.60;;;;;;4344621;33;20149;-63
2021/05/16 09:39:35;;;;;;;19.37;6.90;;;14.60;98.00;;;;;;4335636;32;20165;-62
2021/05/16 09:42:03;;;;;;;24.30;6.90;;;14.10;99.60;;;;;;4335246;33;20153;-64
2021/05/16 09:44:35;;;;;;;19.70;6.37;;;14.00;99.90;;;;;;4347493;33;20175;-62
2021/05/16 09:47:27;;;;;;;30.63;7.50;;;14.20;99.90;;;;;;4346308;33;20158;-63
2021/05/16 09:49:54;;;;;;;17.10;7.27;;;14.40;99.90;;;;;;4296884;33;20265;-64
2021/05/16 09:52:26;;;;;;;23.87;7.93;;;14.50;99.90;;;;;;4298648;33;20230;-64
2021/05/16 09:55:06;;;;;;;12.67;5.87;;;14.40;99.90;;;;;;4299219;33;20188;-65
2021/05/16 09:57:36;;;;;;;20.57;7.53;;;14.60;99.90;;;;;;4298865;33;20195;-63
2021/05/16 10:00:04;;;;;;;23.30;7.83;;;13.70;99.90;;;;;;4297848;33;20237;-62
2021/05/16 10:02:31;;;;;;;24.63;10.27;;;13.60;99.90;;;;;;4298268;33;20294;-62
2021/05/16 10:05:01;;;;;;;26.57;9.07;;;13.20;99.90;;;;;;4298295;33;20685;-64
2021/05/16 10:07:29;;;;;;;23.67;10.57;;;12.90;99.90;;;;;;4290872;33;20611;-63
2021/05/16 10:09:57;;;;;;;25.33;9.70;;;12.50;99.90;;;;;;4290744;33;20258;-64
2021/05/16 10:12:25;;;;;;;35.17;11.37;;;12.30;99.90;;;;;;4293121;33;20220;-64
2021/05/16 10:14:56;;;;;;;31.00;11.17;;;12.10;99.90;;;;;;4291109;33;20299;-65
2021/05/16 10:17:25;;;;;;;20.03;9.20;;;12.00;99.90;;;;;;4298528;33;20158;-64
2021/05/16 10:19:52;;;;;;;31.60;11.43;;;12.10;99.90;;;;;;4299150;33;20173;-65
2021/05/16 10:22:18;;;;;;;26.43;10.43;;;12.10;99.90;;;;;;4299785;33;20192;-64
2021/05/16 10:24:47;;;;;;;25.47;9.77;;;12.00;99.90;;;;;;4300242;33;20185;-62
2021/05/16 10:27:20;;;;;;;19.27;8.37;;;11.90;99.90;;;;;;4323598;33;20288;-64
2021/05/16 10:29:48;;;;;;;12.50;5.23;;;11.70;99.90;;;;;;4330105;33;20455;-64
2021/05/16 10:32:21;;;;;;;17.03;5.33;;;11.60;99.90;;;;;;4336019;33;20177;-64
2021/05/16 10:34:54;;;;;;;12.37;4.63;;;11.50;99.90;;;;;;4343157;33;20206;-64
2021/05/16 10:37:57;;;;;;;8.10;3.67;;;11.70;99.90;;;;;;4343905;33;20184;-63
2021/05/16 10:40:32;;;;;;;8.97;3.60;;;11.90;99.90;;;;;;4343121;33;20247;-63
2021/05/16 10:43:00;;;;;;;9.90;3.80;;;12.40;99.90;;;;;;4343826;33;20216;-64
2021/05/16 10:45:47;;;;;;;13.73;4.13;;;12.90;99.90;;;;;;4337266;33;20240;-61
2021/05/16 10:48:16;;;;;;;11.10;4.57;;;14.10;99.90;;;;;;4344110;33;20179;-63
2021/05/16 10:51:01;;;;;;;9.67;4.27;;;14.70;99.90;;;;;;4341186;33;20226;-61
2021/05/16 10:53:50;;;;;;;11.43;3.40;;;14.50;99.90;;;;;;4343200;33;20705;-63
2021/05/16 10:56:21;;;;;;;13.43;3.93;;;14.40;99.90;;;;;;4336925;33;20500;-61
2021/05/16 10:58:54;;;;;;;8.03;3.47;;;14.60;99.90;;;;;;4352796;33;20162;-61
2021/05/16 11:01:37;;;;;;;10.43;3.20;;;14.60;99.90;;;;;;4342138;32;20198;-61
2021/05/16 11:04:08;;;;;;;9.80;4.27;;;14.80;99.90;;;;;;4340588;33;20154;-60
2021/05/16 11:07:01;;;;;;;11.07;4.30;;;15.00;99.90;;;;;;4341266;33;20157;-61
2021/05/16 11:09:34;;;;;;;10.30;3.23;;;15.20;99.90;;;;;;4335976;33;20207;-63
2021/05/16 11:12:05;;;;;;;10.50;3.60;;;15.50;99.90;;;;;;4341857;32;20188;-62
2021/05/16 11:14:36;;;;;;;14.37;5.23;;;15.80;99.80;;;;;;4347291;33;20165;-62
2021/05/16 11:17:04;;;;;;;11.77;4.50;;;15.40;99.90;;;;;;4336475;33;20582;-64
2021/05/16 11:19:33;;;;;;;13.77;4.10;;;15.40;99.90;;;;;;4340447;33;20286;-62
2021/05/16 11:22:13;;;;;;;12.53;4.97;;;15.40;99.90;;;;;;4343510;33;20161;-62
2021/05/16 11:24:47;;;;;;;11.07;3.80;;;15.60;99.90;;;;;;4346027;33;20219;-62
2021/05/16 11:27:27;;;;;;;13.83;4.97;;;15.50;99.90;;;;;;4336581;33;20244;-63
2021/05/16 11:29:58;;;;;;;16.57;5.10;;;15.80;99.90;;;;;;4340248;33;20185;-63
2021/05/16 11:32:31;;;;;;;14.80;4.90;;;16.30;99.90;;;;;;4339226;33;20952;-65
2021/05/16 11:35:13;;;;;;;13.43;4.27;;;17.50;98.80;;;;;;4343430;33;20540;-64
2021/05/16 11:38:01;;;;;;;;;;;;;;;;;;;;;
2021/05/16 11:40:31;;;;;;;14.37;4.53;;;17.10;95.80;;;;;;4342292;33;20173;-62
2021/05/16 11:43:01;;;;;;;14.63;4.67;;;16.70;96.90;;;;;;4335942;33;20188;-64
2021/05/16 11:45:34;;;;;;;17.30;4.93;;;15.90;97.30;;;;;;4340077;33;20220;-61
2021/05/16 11:48:00;;;;;;;22.97;6.43;;;15.20;99.60;;;;;;4332390;33;20172;-63
2021/05/16 11:50:42;;;;;;;20.03;5.90;;;14.10;99.90;;;;;;4337739;33;20153;-62
2021/05/16 11:53:09;;;;;;;15.60;5.23;;;13.50;99.90;;;;;;4342038;33;20215;-62
2021/05/16 11:55:35;;;;;;;17.77;5.57;;;13.40;99.90;;;;;;4341743;33;20165;-62
2021/05/16 11:58:07;;;;;;;16.47;6.17;;;13.70;99.90;;;;;;4337379;33;20236;-62
2021/05/16 12:00:37;;;;;;;23.80;7.93;;;14.20;99.90;;;;;;4337158;33;20167;-62
2021/05/16 12:03:11;;;;;;;15.93;6.00;;;14.50;99.90;;;;;;4335955;33;20221;-63
2021/05/16 12:05:37;;;;;;;17.63;6.60;;;14.50;99.90;;;;;;4337268;33;20248;-62
2021/05/16 12:08:17;;;;;;;17.43;6.47;;;14.40;99.90;;;;;;4340242;33;20252;-61
2021/05/16 12:10:47;;;;;;;18.43;6.33;;;14.10;99.90;;;;;;4333017;33;20154;-62
2021/05/16 12:13:22;;;;;;;14.43;6.87;;;14.40;99.90;;;;;;4342521;33;20585;-62
2021/05/16 12:15:48;;;;;;;24.43;7.23;;;14.90;99.90;;;;;;4346444;33;20493;-62
2021/05/16 12:18:20;;;;;;;18.80;8.00;;;15.20;99.90;;;;;;4342485;33;20210;-62
2021/05/16 12:20:58;;;;;;;24.13;7.13;;;15.30;99.90;;;;;;4335351;33;20163;-61
2021/05/16 12:23:24;;;;;;;17.03;6.17;;;15.80;99.90;;;;;;4340966;33;20227;-62
2021/05/16 12:25:50;;;;;;;20.30;6.47;;;15.90;99.90;;;;;;4344840;33;20204;-62
2021/05/16 12:28:17;;;;;;;13.50;5.53;;;15.80;99.90;;;;;;4335084;33;20162;-63
2021/05/16 12:30:45;;;;;;;13.13;5.03;;;15.60;99.90;;;;;;4333962;33;20559;-60
2021/05/16 12:33:13;;;;;;;9.00;4.43;;;15.60;99.90;;;;;;4334288;33;20165;-62
2021/05/16 12:35:39;;;;;;;19.83;4.97;;;15.30;99.90;;;;;;4335288;33;20245;-63
2021/05/16 12:38:12;;;;;;;15.50;5.27;;;15.20;99.90;;;;;;4343933;33;20181;-62
2021/05/16 12:40:38;;;;;;;13.00;4.50;;;14.90;99.90;;;;;;4329265;33;20677;-62
2021/05/16 12:43:10;;;;;;;12.40;5.20;;;14.50;99.90;;;;;;4333977;33;20204;-63